San Rafael, CA (94901)

12:06 AM PDT en Marzo 30, 2015 (GMT -0700)
Country Club | | Change Station
CLOSE
Current Station
Estación meteorológica personal
Location: San Rafael, CA
Altura: 331 ft
Estaciones meteorológicas cercanas

Alt 331 ft 37.98 °N, 122.50 °W | Updated 3 seconds ago

Parcialmente nublado
Parcialmente nublado
58.1 ° F
Sensación térmica 58.1 ° F
N
0.0
Viento Variable Viento desde NE
Gusts 0.0 mph

Hoy
Alta -- | Baja -- ° F
--% Posibilidad de precipitaciones
Ayer
Alta -- | Baja -- ° F
Precip. -- pul
6:58 AM 7:31 PM
Gibosa creciente, 77% visible
Presión 30.06 pul
Visibilidad 10.0 Millas
Nubes Muy nublado 300 ft
Punto de rocío 49 ° F
Humedad 71%
Precipitaciones 0.00 pul
Espesor de la nieve No disponible.
UV 0.0 de una escala de 12
Polen 8.80 de una escala de 12
Calidad del aire No disponible.
Flu Activity No disponible.
METAR KO69 300655Z AUTO 01003KT 10SM BKN003 09/07 A3006 RMK AO1

More Conditions Fewer Conditions

Presión 30.06 pul
Visibilidad 10.0 Millas
Nubes Muy nublado 300 ft
Punto de rocío 49 ° F
Humedad 71%
Precipitaciones 0.00 pul
Espesor de la nieve No disponible.
UV 0.0 de una escala de 12
Polen 8.80 de una escala de 12
Calidad del aire No disponible.
Flu Activity No disponible.
METAR KO69 300655Z AUTO 01003KT 10SM BKN003 09/07 A3006 RMK AO1

More Conditions Fewer Conditions

10-Day Weather Forecast

Almanac

Astronomía

Mar. 30, 2015 Salida Puesta
Hora real
Crepúsculo civil
Crepúsculo náutico
Crepúsculo astronómico
Luna
Horas de luz
Horas de luz
Tomorrow will be .
, % of the Moon is Illuminated

Extremos de hoy

Máximos del estado Bajos del estado

Community

WunderPhotos

Upload Photos

1,809,449 ¡fotos cargadas!

WunderBlogs® & News

Nearby

Calidad del aire

  Calidad del aire Índice AQ Contaminante
Not available.

Grosos de nieve

Estación Profundido Altura

Actividad de terremotos

Ciudad Distance Mag. Tiempo y dato
Magnitud mínima muestra es 2,5.

Temperaturas de aguas costeras

Lugar Temperatura

Stations

Estaciones meteorológicas cercanas

Ubicación de la estación Temp. Vientos helados Punto de rocío Humedad Viento Precip. Alt Actualizado Tipo